createdAt,value
2018-09-16T00:01:12.897Z,12.10
2018-09-16T00:03:41.341Z,12.10
2018-09-16T00:06:09.788Z,12.20
2018-09-16T00:08:38.248Z,12.20
2018-09-16T00:11:06.714Z,12.20
2018-09-16T00:13:35.167Z,12.10
2018-09-16T00:16:03.673Z,12.10
2018-09-16T00:18:32.121Z,12.20
2018-09-16T00:21:00.661Z,12.10
2018-09-16T00:23:29.145Z,12.20
2018-09-16T00:25:57.648Z,12.20
2018-09-16T00:28:26.187Z,12.20
2018-09-16T00:30:54.650Z,12.20
2018-09-16T00:33:23.101Z,12.20
2018-09-16T00:35:51.619Z,12.20
2018-09-16T00:38:21.368Z,12.10
2018-09-16T00:40:50.061Z,12.10
2018-09-16T00:43:18.713Z,12.00
2018-09-16T00:45:47.569Z,12.00
2018-09-16T00:48:16.440Z,11.90
2018-09-16T00:50:45.322Z,11.90
2018-09-16T00:53:14.079Z,11.90
2018-09-16T00:55:43.648Z,11.90
2018-09-16T00:58:12.295Z,11.90
2018-09-16T01:00:41.007Z,11.80
2018-09-16T01:03:10.035Z,11.80
2018-09-16T01:05:45.104Z,11.80
2018-09-16T01:08:13.864Z,11.80
2018-09-16T01:10:42.326Z,11.90
2018-09-16T01:13:11.132Z,11.90
2018-09-16T01:15:39.650Z,11.90
2018-09-16T01:18:08.122Z,11.90
2018-09-16T01:20:36.618Z,11.90
2018-09-16T01:23:05.063Z,12.00
2018-09-16T01:25:33.860Z,12.00
2018-09-16T01:28:02.350Z,11.90
2018-09-16T01:30:31.632Z,11.90
2018-09-16T01:33:00.131Z,11.90
2018-09-16T01:35:28.611Z,11.90
2018-09-16T01:38:02.585Z,11.90
2018-09-16T01:40:31.298Z,11.90
2018-09-16T01:43:00.051Z,11.80
2018-09-16T01:45:28.820Z,11.70
2018-09-16T01:47:57.824Z,11.70
2018-09-16T01:50:27.237Z,11.60
2018-09-16T01:52:56.268Z,11.60
2018-09-16T01:55:26.334Z,11.70
2018-09-16T01:57:54.925Z,11.70
2018-09-16T02:00:24.656Z,11.70
2018-09-16T02:02:54.718Z,11.70
2018-09-16T02:05:31.500Z,11.80
2018-09-16T02:08:00.777Z,11.80
2018-09-16T02:10:29.398Z,11.80
2018-09-16T02:12:58.020Z,11.70
2018-09-16T02:15:27.224Z,11.70
2018-09-16T02:17:55.723Z,11.70
2018-09-16T02:20:24.924Z,11.60
2018-09-16T02:22:53.665Z,11.60
2018-09-16T02:25:22.286Z,11.70
2018-09-16T02:27:50.874Z,11.80
2018-09-16T02:30:19.458Z,11.80
2018-09-16T02:32:47.904Z,11.80
2018-09-16T02:35:22.107Z,11.60
2018-09-16T02:37:51.241Z,11.40
2018-09-16T02:40:19.813Z,11.40
2018-09-16T02:42:48.305Z,11.30
2018-09-16T02:45:16.834Z,11.20
2018-09-16T02:47:45.485Z,11.20
2018-09-16T02:50:13.975Z,11.20
2018-09-16T02:52:42.453Z,11.30
2018-09-16T02:55:10.979Z,11.20
2018-09-16T02:57:39.554Z,11.20
2018-09-16T03:00:08.114Z,11.20
2018-09-16T03:02:36.661Z,11.20
2018-09-16T03:05:05.339Z,11.20
2018-09-16T03:07:33.882Z,11.30
2018-09-16T03:10:02.454Z,11.30
2018-09-16T03:12:30.968Z,11.40
2018-09-16T03:14:59.499Z,11.30
2018-09-16T03:17:27.961Z,11.40
2018-09-16T03:19:56.418Z,11.40
2018-09-16T03:22:24.890Z,11.40
2018-09-16T03:24:53.337Z,11.40
2018-09-16T03:27:21.840Z,11.50
2018-09-16T03:29:50.352Z,11.50
2018-09-16T03:32:19.351Z,11.50
2018-09-16T03:34:47.782Z,11.50
2018-09-16T03:37:16.288Z,11.50
2018-09-16T03:39:44.759Z,11.50
2018-09-16T03:42:13.222Z,11.50
2018-09-16T03:44:41.683Z,11.50
2018-09-16T03:47:10.145Z,11.40
2018-09-16T03:49:38.606Z,11.30
2018-09-16T03:52:07.065Z,11.20
2018-09-16T03:54:35.547Z,11.20
2018-09-16T03:57:04.021Z,11.30
2018-09-16T03:59:32.813Z,11.20
2018-09-16T04:02:01.244Z,11.20
2018-09-16T04:04:29.720Z,11.10
2018-09-16T04:06:58.147Z,11.10
2018-09-16T04:09:26.642Z,11.00
2018-09-16T04:11:55.098Z,11.10
2018-09-16T04:14:23.582Z,11.10
2018-09-16T04:16:52.041Z,11.10
2018-09-16T04:19:20.497Z,11.10
2018-09-16T04:21:48.942Z,11.10
2018-09-16T04:24:17.409Z,11.10
2018-09-16T04:26:45.897Z,11.20
2018-09-16T04:29:14.379Z,11.20
2018-09-16T04:31:42.873Z,11.20
2018-09-16T04:34:11.312Z,11.20
2018-09-16T04:36:39.770Z,11.10
2018-09-16T04:39:09.890Z,11.10
2018-09-16T04:41:38.377Z,11.10
2018-09-16T04:44:07.204Z,11.10
2018-09-16T04:46:35.657Z,11.00
2018-09-16T04:49:04.183Z,11.00
2018-09-16T04:51:32.645Z,11.00
2018-09-16T04:54:01.187Z,11.00
2018-09-16T04:56:29.985Z,11.10
2018-09-16T04:58:58.728Z,11.10
2018-09-16T05:01:27.662Z,11.20
2018-09-16T05:03:56.357Z,11.20
2018-09-16T05:06:25.446Z,11.20
2018-09-16T05:08:53.916Z,11.20
2018-09-16T05:11:22.385Z,11.20
2018-09-16T05:13:51.435Z,11.20
2018-09-16T05:16:19.896Z,11.20
2018-09-16T05:18:48.438Z,11.20
2018-09-16T05:21:16.923Z,11.20
2018-09-16T05:23:45.561Z,11.30
2018-09-16T05:26:14.798Z,11.30
2018-09-16T05:28:43.286Z,11.30
2018-09-16T05:31:11.794Z,11.30
2018-09-16T05:33:40.264Z,11.40
2018-09-16T05:36:08.734Z,11.50
2018-09-16T05:38:37.218Z,11.50
2018-09-16T05:41:05.761Z,11.60
2018-09-16T05:43:34.186Z,11.70
2018-09-16T05:46:02.630Z,11.90
2018-09-16T05:48:31.186Z,11.90
2018-09-16T05:50:59.656Z,12.00
2018-09-16T05:53:28.269Z,12.00
2018-09-16T05:55:56.600Z,12.10
2018-09-16T05:58:25.668Z,12.10
2018-09-16T06:00:54.254Z,12.30
2018-09-16T06:03:22.701Z,12.30
2018-09-16T06:05:51.156Z,12.40
2018-09-16T06:08:19.734Z,12.50
2018-09-16T06:10:48.207Z,12.60
2018-09-16T06:13:16.882Z,12.70
2018-09-16T06:15:45.393Z,12.80
2018-09-16T06:18:13.829Z,12.80
2018-09-16T06:20:42.354Z,12.90
2018-09-16T06:23:10.822Z,12.90
2018-09-16T06:25:39.342Z,13.00
2018-09-16T06:28:07.776Z,13.00
2018-09-16T06:30:36.262Z,13.00
2018-09-16T06:33:04.770Z,13.00
2018-09-16T06:35:33.196Z,13.10
2018-09-16T06:38:01.713Z,13.10
2018-09-16T06:40:30.153Z,13.10
2018-09-16T06:42:58.670Z,13.20
2018-09-16T06:45:27.123Z,13.30
2018-09-16T06:47:55.788Z,13.40
2018-09-16T06:50:24.245Z,13.60
2018-09-16T06:52:52.724Z,13.70
2018-09-16T06:55:21.198Z,13.80
2018-09-16T06:57:50.405Z,14.00
2018-09-16T07:00:18.855Z,14.10
2018-09-16T07:02:47.276Z,14.40
2018-09-16T07:05:15.745Z,14.60
2018-09-16T07:07:44.338Z,14.70
2018-09-16T07:10:12.785Z,14.90
2018-09-16T07:12:41.221Z,15.10
2018-09-16T07:15:09.722Z,15.30
2018-09-16T07:17:38.237Z,15.40
2018-09-16T07:20:06.796Z,15.50
2018-09-16T07:22:35.309Z,15.70
2018-09-16T07:25:04.406Z,15.90
2018-09-16T07:27:32.844Z,16.10
2018-09-16T07:30:01.256Z,16.40
2018-09-16T07:32:29.727Z,17.50
2018-09-16T07:34:58.176Z,18.30
2018-09-16T07:37:26.646Z,18.70
2018-09-16T07:39:55.825Z,19.30
2018-09-16T07:42:24.265Z,19.80
2018-09-16T07:44:52.731Z,20.10
2018-09-16T07:47:21.366Z,20.40
2018-09-16T07:49:49.808Z,20.30
2018-09-16T07:52:18.354Z,20.50
2018-09-16T07:54:47.666Z,20.60
2018-09-16T07:57:16.120Z,20.70
2018-09-16T07:59:44.653Z,20.90
2018-09-16T08:02:13.211Z,21.10
2018-09-16T08:04:41.692Z,21.40
2018-09-16T08:07:10.215Z,21.40
2018-09-16T08:09:38.669Z,21.80
2018-09-16T08:12:07.131Z,21.40
2018-09-16T08:14:35.634Z,21.60
2018-09-16T08:17:04.698Z,21.50
2018-09-16T08:19:33.235Z,21.70
2018-09-16T08:22:01.688Z,21.70
2018-09-16T08:24:30.206Z,21.80
2018-09-16T08:26:58.654Z,22.20
2018-09-16T08:29:27.110Z,22.30
2018-09-16T08:31:55.589Z,22.70
2018-09-16T08:34:24.017Z,22.40
2018-09-16T08:36:52.681Z,22.80
2018-09-16T08:39:21.150Z,22.70
2018-09-16T08:41:49.632Z,22.70
2018-09-16T08:44:18.085Z,22.60
2018-09-16T08:46:46.546Z,22.80
2018-09-16T08:49:15.141Z,22.80
2018-09-16T08:51:44.494Z,23.10
2018-09-16T08:54:13.815Z,23.10
2018-09-16T08:56:42.299Z,23.30
2018-09-16T08:59:10.754Z,23.20
2018-09-16T09:01:39.197Z,23.20
2018-09-16T09:04:07.695Z,22.60
2018-09-16T09:06:36.153Z,22.50
2018-09-16T09:09:06.731Z,22.70
2018-09-16T09:11:35.182Z,22.90
2018-09-16T09:14:03.785Z,23.10
2018-09-16T09:16:33.285Z,23.10
2018-09-16T09:19:01.852Z,23.40
2018-09-16T09:21:30.373Z,22.90
2018-09-16T09:23:58.809Z,22.80
2018-09-16T09:26:27.352Z,22.50
2018-09-16T09:28:56.101Z,22.60
2018-09-16T09:31:24.618Z,22.80
2018-09-16T09:33:53.070Z,22.70
2018-09-16T09:36:21.611Z,23.00
2018-09-16T09:38:50.704Z,23.20
2018-09-16T09:41:19.170Z,23.20
2018-09-16T09:43:48.652Z,23.30
2018-09-16T09:46:18.684Z,23.30
2018-09-16T09:48:47.218Z,23.70
2018-09-16T09:51:15.670Z,23.40
2018-09-16T09:53:44.179Z,23.40
2018-09-16T09:56:12.622Z,23.50
2018-09-16T09:58:41.202Z,23.40
2018-09-16T10:01:10.457Z,23.50
2018-09-16T10:03:38.974Z,23.80
2018-09-16T10:06:07.441Z,23.70
2018-09-16T10:08:35.866Z,23.80
2018-09-16T10:11:04.420Z,23.80
2018-09-16T10:13:32.882Z,24.00
2018-09-16T10:16:01.384Z,24.10
2018-09-16T10:18:29.846Z,24.30
2018-09-16T10:20:58.309Z,24.40
2018-09-16T10:23:26.773Z,24.70
2018-09-16T10:25:55.265Z,24.90
2018-09-16T10:28:23.703Z,24.90
2018-09-16T10:30:52.171Z,25.00
2018-09-16T10:33:20.684Z,24.90
2018-09-16T10:35:49.146Z,25.30
2018-09-16T10:38:17.872Z,24.90
2018-09-16T10:40:46.371Z,24.70
2018-09-16T10:43:15.110Z,25.30
2018-09-16T10:45:43.568Z,25.40
2018-09-16T10:48:12.073Z,25.60
2018-09-16T10:50:40.560Z,25.50
2018-09-16T10:53:09.087Z,25.60
2018-09-16T10:55:37.545Z,25.60
2018-09-16T10:58:06.387Z,26.20
2018-09-16T11:00:34.883Z,26.20
2018-09-16T11:03:03.366Z,26.20
2018-09-16T11:05:31.832Z,25.50
2018-09-16T11:08:00.867Z,25.40
2018-09-16T11:10:29.374Z,25.50
2018-09-16T11:12:57.804Z,25.30
2018-09-16T11:15:26.353Z,24.80
2018-09-16T11:17:55.080Z,24.70
2018-09-16T11:20:23.539Z,25.00
2018-09-16T11:22:52.109Z,25.30
2018-09-16T11:25:20.606Z,25.50
2018-09-16T11:27:49.061Z,25.80
2018-09-16T11:30:17.645Z,26.00
2018-09-16T11:32:46.310Z,25.70
2018-09-16T11:35:14.834Z,25.80
2018-09-16T11:37:43.376Z,26.30
2018-09-16T11:40:11.855Z,26.70
2018-09-16T11:42:40.443Z,26.90
2018-09-16T11:45:09.058Z,26.30
2018-09-16T11:47:37.519Z,26.50
2018-09-16T11:50:06.243Z,26.90
2018-09-16T11:52:34.858Z,26.60
2018-09-16T11:55:03.503Z,26.50
2018-09-16T11:57:32.012Z,26.50
2018-09-16T12:00:00.971Z,26.90
2018-09-16T12:02:29.957Z,27.00
2018-09-16T12:04:58.457Z,26.70
2018-09-16T12:07:27.116Z,27.20
2018-09-16T12:09:57.904Z,27.60
2018-09-16T12:12:26.420Z,27.10
2018-09-16T12:14:55.614Z,26.90
2018-09-16T12:17:24.112Z,27.00
2018-09-16T12:19:52.683Z,27.20
2018-09-16T12:22:21.222Z,27.70
2018-09-16T12:24:51.673Z,27.70
2018-09-16T12:27:25.064Z,26.70
2018-09-16T12:29:53.722Z,26.40
2018-09-16T12:32:22.998Z,27.00
2018-09-16T12:34:51.449Z,27.80
2018-09-16T12:37:20.860Z,28.20
2018-09-16T12:39:50.248Z,28.30
2018-09-16T12:42:18.765Z,28.60
2018-09-16T12:44:47.256Z,28.60
2018-09-16T12:47:15.832Z,28.70
2018-09-16T12:49:45.147Z,28.80
2018-09-16T12:52:13.738Z,29.00
2018-09-16T12:54:42.210Z,29.50
2018-09-16T12:57:10.814Z,29.80
2018-09-16T12:59:39.280Z,29.30
2018-09-16T13:02:07.852Z,29.00
2018-09-16T13:04:36.833Z,28.70
2018-09-16T13:07:05.435Z,28.40
2018-09-16T13:09:33.969Z,28.50
2018-09-16T13:12:02.712Z,28.50
2018-09-16T13:14:32.865Z,28.50
2018-09-16T13:17:01.358Z,28.40
2018-09-16T13:19:30.163Z,28.20
2018-09-16T13:21:58.645Z,28.10
2018-09-16T13:24:27.124Z,27.60
2018-09-16T13:26:57.449Z,27.90
2018-09-16T13:29:28.509Z,27.40
2018-09-16T13:31:56.991Z,27.00
2018-09-16T13:34:26.759Z,26.90
2018-09-16T13:36:55.360Z,27.30
2018-09-16T13:39:23.834Z,27.10
2018-09-16T13:41:53.370Z,27.00
2018-09-16T13:44:21.862Z,26.80
2018-09-16T13:46:50.369Z,26.30
2018-09-16T13:49:19.939Z,25.60
2018-09-16T13:51:48.433Z,25.90
2018-09-16T13:54:19.905Z,26.00
2018-09-16T13:56:48.373Z,26.30
2018-09-16T13:59:16.854Z,26.50
2018-09-16T14:01:45.377Z,25.90
2018-09-16T14:04:13.961Z,26.00
2018-09-16T14:06:42.445Z,26.20
2018-09-16T14:09:12.538Z,27.00
2018-09-16T14:11:41.288Z,26.90
2018-09-16T14:14:09.895Z,27.70
2018-09-16T14:16:38.557Z,28.40
2018-09-16T14:19:07.106Z,28.80
2018-09-16T14:21:35.549Z,28.60
2018-09-16T14:24:04.183Z,28.50
2018-09-16T14:26:32.673Z,28.60
2018-09-16T14:29:01.108Z,29.00
2018-09-16T14:31:29.539Z,28.60
2018-09-16T14:33:57.990Z,28.60
2018-09-16T14:36:26.514Z,28.80
2018-09-16T14:38:54.999Z,28.90
2018-09-16T14:41:23.501Z,28.60
2018-09-16T14:43:52.497Z,28.20
2018-09-16T14:46:20.993Z,28.00
2018-09-16T14:48:49.628Z,28.20
2018-09-16T14:51:18.152Z,28.40
2018-09-16T14:53:46.596Z,28.20
2018-09-16T14:56:15.072Z,27.80
2018-09-16T14:58:43.543Z,27.00
2018-09-16T15:01:12.154Z,26.60
2018-09-16T15:03:40.614Z,26.40
2018-09-16T15:06:09.095Z,26.60
2018-09-16T15:08:37.638Z,26.70
2018-09-16T15:11:06.147Z,26.50
2018-09-16T15:13:34.678Z,26.50
2018-09-16T15:16:03.190Z,26.00
2018-09-16T15:18:31.617Z,25.60
2018-09-16T15:21:00.281Z,25.50
2018-09-16T15:23:28.704Z,25.80
2018-09-16T15:25:57.246Z,25.40
2018-09-16T15:28:25.700Z,25.70
2018-09-16T15:30:54.126Z,25.60
2018-09-16T15:33:22.585Z,25.70
2018-09-16T15:35:51.089Z,25.70
2018-09-16T15:38:19.611Z,25.40
2018-09-16T15:40:48.078Z,25.30
2018-09-16T15:43:16.593Z,25.30
2018-09-16T15:45:45.117Z,24.80
2018-09-16T15:48:13.582Z,24.60
2018-09-16T15:50:42.052Z,24.50
2018-09-16T15:53:10.505Z,24.30
2018-09-16T15:55:38.929Z,24.40
2018-09-16T15:58:08.110Z,24.40
2018-09-16T16:00:36.534Z,24.50
2018-09-16T16:03:05.167Z,24.60
2018-09-16T16:05:33.604Z,24.80
2018-09-16T16:08:02.152Z,24.70
2018-09-16T16:10:30.923Z,24.80
2018-09-16T16:13:00.346Z,24.70
2018-09-16T16:15:28.826Z,24.50
2018-09-16T16:17:58.636Z,24.30
2018-09-16T16:20:27.130Z,24.40
2018-09-16T16:22:55.703Z,24.50
2018-09-16T16:25:24.157Z,24.60
2018-09-16T16:27:52.679Z,24.30
2018-09-16T16:30:21.218Z,24.30
2018-09-16T16:32:49.681Z,24.30
2018-09-16T16:35:18.210Z,24.10
2018-09-16T16:37:46.697Z,24.20
2018-09-16T16:40:15.153Z,24.10
2018-09-16T16:42:43.720Z,24.00
2018-09-16T16:45:12.245Z,24.00
2018-09-16T16:47:40.785Z,23.90
2018-09-16T16:50:09.321Z,23.80
2018-09-16T16:52:37.756Z,23.70
2018-09-16T16:55:06.774Z,23.70
2018-09-16T16:57:35.414Z,23.60
2018-09-16T17:00:04.354Z,23.50
2018-09-16T17:02:32.886Z,23.20
2018-09-16T17:05:01.479Z,23.10
2018-09-16T17:07:29.980Z,23.00
2018-09-16T17:09:58.439Z,22.90
2018-09-16T17:12:27.041Z,22.80
2018-09-16T17:14:55.506Z,22.60
2018-09-16T17:17:23.948Z,22.50
2018-09-16T17:19:52.407Z,22.30
2018-09-16T17:22:20.889Z,22.10
2018-09-16T17:24:49.373Z,21.80
2018-09-16T17:27:18.691Z,21.60
2018-09-16T17:29:47.276Z,21.40
2018-09-16T17:32:15.758Z,21.10
2018-09-16T17:34:44.596Z,21.10
2018-09-16T17:37:13.087Z,21.00
2018-09-16T17:39:41.576Z,20.90
2018-09-16T17:42:10.873Z,20.90
2018-09-16T17:44:39.312Z,20.90
2018-09-16T17:47:07.790Z,20.80
2018-09-16T17:49:36.227Z,20.70
2018-09-16T17:52:04.759Z,20.60
2018-09-16T17:54:33.601Z,20.40
2018-09-16T17:57:02.168Z,20.30
2018-09-16T17:59:30.665Z,20.20
2018-09-16T18:01:59.153Z,20.10
2018-09-16T18:04:27.634Z,19.90
2018-09-16T18:06:56.124Z,19.80
2018-09-16T18:09:24.633Z,19.70
2018-09-16T18:11:53.068Z,19.70
2018-09-16T18:14:21.559Z,19.70
2018-09-16T18:16:50.097Z,19.70
2018-09-16T18:19:18.530Z,19.60
2018-09-16T18:21:47.014Z,19.50
2018-09-16T18:24:15.527Z,19.40
2018-09-16T18:26:44.023Z,19.40
2018-09-16T18:29:12.515Z,19.30
2018-09-16T18:31:41.013Z,19.30
2018-09-16T18:34:09.515Z,19.20
2018-09-16T18:36:38.011Z,19.20
2018-09-16T18:39:09.682Z,19.20
2018-09-16T18:41:38.130Z,19.10
2018-09-16T18:44:06.591Z,19.00
2018-09-16T18:46:35.167Z,18.80
2018-09-16T18:49:03.921Z,18.70
2018-09-16T18:51:32.457Z,18.70
2018-09-16T18:54:00.887Z,18.70
2018-09-16T18:56:29.371Z,18.60
2018-09-16T18:58:57.838Z,18.50
2018-09-16T19:01:26.538Z,18.50
2018-09-16T19:03:55.034Z,18.40
2018-09-16T19:06:23.457Z,18.40
2018-09-16T19:08:51.923Z,18.40
2018-09-16T19:11:20.370Z,18.30
2018-09-16T19:13:48.804Z,18.20
2018-09-16T19:16:17.293Z,18.10
2018-09-16T19:18:45.765Z,18.00
2018-09-16T19:21:14.234Z,18.00
2018-09-16T19:23:42.766Z,17.90
2018-09-16T19:26:11.263Z,17.80
2018-09-16T19:28:39.765Z,17.70
2018-09-16T19:31:08.432Z,17.70
2018-09-16T19:33:36.865Z,17.60
2018-09-16T19:36:06.278Z,17.50
2018-09-16T19:38:34.754Z,17.50
2018-09-16T19:41:03.225Z,17.50
2018-09-16T19:43:31.677Z,17.40
2018-09-16T19:46:00.121Z,17.40
2018-09-16T19:48:28.599Z,17.30
2018-09-16T19:50:57.042Z,17.30
2018-09-16T19:53:26.113Z,17.20
2018-09-16T19:55:54.540Z,17.20
2018-09-16T19:58:23.022Z,17.10
2018-09-16T20:00:51.467Z,17.00
2018-09-16T20:03:19.962Z,16.90
2018-09-16T20:05:48.437Z,16.90
2018-09-16T20:08:17.894Z,16.80
2018-09-16T20:10:46.377Z,16.70
2018-09-16T20:13:14.874Z,16.70
2018-09-16T20:15:43.318Z,16.70
2018-09-16T20:18:11.807Z,16.60
2018-09-16T20:20:40.265Z,16.60
2018-09-16T20:23:08.707Z,16.50
2018-09-16T20:25:37.160Z,16.50
2018-09-16T20:28:05.807Z,16.60
2018-09-16T20:30:34.260Z,16.60
2018-09-16T20:33:02.694Z,16.60
2018-09-16T20:35:31.538Z,16.70
2018-09-16T20:37:59.975Z,16.70
2018-09-16T20:40:28.426Z,16.70
2018-09-16T20:42:56.851Z,16.70
2018-09-16T20:45:25.350Z,16.60
2018-09-16T20:47:53.776Z,16.50
2018-09-16T20:50:22.405Z,16.50
2018-09-16T20:52:50.846Z,16.50
2018-09-16T20:55:19.290Z,16.40
2018-09-16T20:57:47.721Z,16.30
2018-09-16T21:00:16.205Z,16.20
2018-09-16T21:02:44.620Z,16.10
2018-09-16T21:05:13.081Z,16.10
2018-09-16T21:07:41.509Z,16.00
2018-09-16T21:10:09.998Z,15.90
2018-09-16T21:12:38.433Z,15.90
2018-09-16T21:15:13.817Z,15.80
2018-09-16T21:17:42.270Z,15.90
2018-09-16T21:20:10.698Z,15.80
2018-09-16T21:22:39.150Z,15.80
2018-09-16T21:25:07.709Z,15.70
2018-09-16T21:27:36.157Z,15.70
2018-09-16T21:30:04.970Z,15.50
2018-09-16T21:32:33.440Z,15.50
2018-09-16T21:35:02.174Z,15.30
2018-09-16T21:37:31.753Z,15.30
2018-09-16T21:40:00.520Z,15.20
2018-09-16T21:42:29.010Z,15.20
2018-09-16T21:44:57.438Z,15.20
2018-09-16T21:47:25.948Z,15.20
2018-09-16T21:49:54.418Z,15.10
2018-09-16T21:52:22.882Z,15.10
2018-09-16T21:54:51.306Z,15.20
2018-09-16T21:57:19.789Z,15.20
2018-09-16T21:59:48.221Z,15.20
2018-09-16T22:02:16.659Z,15.10
2018-09-16T22:04:45.112Z,15.10
2018-09-16T22:07:13.589Z,15.00
2018-09-16T22:09:42.043Z,14.90
2018-09-16T22:12:10.509Z,14.80
2018-09-16T22:14:38.978Z,14.80
2018-09-16T22:17:07.653Z,14.70
2018-09-16T22:19:36.127Z,14.70
2018-09-16T22:22:04.623Z,14.70
2018-09-16T22:24:33.101Z,14.60
2018-09-16T22:27:01.562Z,14.60
2018-09-16T22:29:30.007Z,14.50
2018-09-16T22:31:58.461Z,14.50
2018-09-16T22:34:27.074Z,14.50
2018-09-16T22:36:55.541Z,14.50
2018-09-16T22:39:24.627Z,14.50
2018-09-16T22:41:53.058Z,14.50
2018-09-16T22:44:21.573Z,14.50
2018-09-16T22:46:50.046Z,14.50
2018-09-16T22:49:18.457Z,14.50
2018-09-16T22:51:47.734Z,14.40
2018-09-16T22:54:16.196Z,14.40
2018-09-16T22:56:44.641Z,14.40
2018-09-16T22:59:13.097Z,14.40
2018-09-16T23:01:42.265Z,14.40
2018-09-16T23:04:10.735Z,14.40
2018-09-16T23:06:39.228Z,14.40
2018-09-16T23:09:11.738Z,14.50
2018-09-16T23:11:41.108Z,14.50
2018-09-16T23:14:09.530Z,14.50
2018-09-16T23:16:38.389Z,14.50
2018-09-16T23:19:06.874Z,14.50
2018-09-16T23:21:35.330Z,14.50
2018-09-16T23:24:03.857Z,14.50
2018-09-16T23:26:32.319Z,14.50
2018-09-16T23:29:00.819Z,14.40
2018-09-16T23:31:29.293Z,14.40
2018-09-16T23:33:57.732Z,14.40
2018-09-16T23:36:26.160Z,14.40
2018-09-16T23:38:54.601Z,14.40
2018-09-16T23:41:23.049Z,14.30
2018-09-16T23:43:51.501Z,14.30
2018-09-16T23:46:19.941Z,14.30
2018-09-16T23:48:48.522Z,14.20
2018-09-16T23:51:16.941Z,14.30
2018-09-16T23:53:45.507Z,14.20
2018-09-16T23:56:13.939Z,14.20
2018-09-16T23:58:42.399Z,14.20
